sensor_id;sensor_type;location;lat;lon;timestamp;pressure;altitude;pressure_sealevel;temperature;humidity
78745;BME280;68064;53.100;8.824;2023-03-20T00:00:50;101820.44;;;9.23;77.43
78745;BME280;68064;53.100;8.824;2023-03-20T00:01:51;101814.44;;;9.22;78.82
78745;BME280;68064;53.100;8.824;2023-03-20T00:02:52;101814.88;;;9.28;78.95
78745;BME280;68064;53.100;8.824;2023-03-20T00:03:53;101812.19;;;9.27;77.78
78745;BME280;68064;53.100;8.824;2023-03-20T00:04:54;101820.06;;;9.30;78.92
78745;BME280;68064;53.100;8.824;2023-03-20T00:05:55;101814.94;;;9.30;77.55
78745;BME280;68064;53.100;8.824;2023-03-20T00:06:56;101814.16;;;9.31;79.10
78745;BME280;68064;53.100;8.824;2023-03-20T00:07:59;101810.34;;;9.24;77.76
78745;BME280;68064;53.100;8.824;2023-03-20T00:09:00;101811.22;;;9.25;74.83
78745;BME280;68064;53.100;8.824;2023-03-20T00:10:01;101806.19;;;9.26;77.08
78745;BME280;68064;53.100;8.824;2023-03-20T00:11:04;101808.75;;;9.26;78.14
78745;BME280;68064;53.100;8.824;2023-03-20T00:12:06;101804.22;;;9.22;77.38
78745;BME280;68064;53.100;8.824;2023-03-20T00:13:12;101809.75;;;9.28;77.45
78745;BME280;68064;53.100;8.824;2023-03-20T00:14:15;101807.66;;;9.23;77.80
78745;BME280;68064;53.100;8.824;2023-03-20T00:15:29;101809.56;;;9.25;78.26
78745;BME280;68064;53.100;8.824;2023-03-20T00:16:32;101822.91;;;9.34;79.42
78745;BME280;68064;53.100;8.824;2023-03-20T00:17:34;101808.88;;;9.28;78.02
78745;BME280;68064;53.100;8.824;2023-03-20T00:18:35;101820.94;;;9.30;78.00
78745;BME280;68064;53.100;8.824;2023-03-20T00:19:36;101814.88;;;9.28;78.84
78745;BME280;68064;53.100;8.824;2023-03-20T00:20:37;101816.72;;;9.31;79.72
78745;BME280;68064;53.100;8.824;2023-03-20T00:21:38;101816.72;;;9.31;79.80
78745;BME280;68064;53.100;8.824;2023-03-20T00:22:39;101822.59;;;9.30;79.05
78745;BME280;68064;53.100;8.824;2023-03-20T00:23:41;101823.50;;;9.30;79.69
78745;BME280;68064;53.100;8.824;2023-03-20T00:24:42;101820.81;;;9.29;79.75
78745;BME280;68064;53.100;8.824;2023-03-20T00:25:44;101813.47;;;9.33;79.70
78745;BME280;68064;53.100;8.824;2023-03-20T00:26:47;101811.69;;;9.32;79.86
78745;BME280;68064;53.100;8.824;2023-03-20T00:27:49;101818.47;;;9.32;79.33
78745;BME280;68064;53.100;8.824;2023-03-20T00:28:51;101810.81;;;9.32;79.71
78745;BME280;68064;53.100;8.824;2023-03-20T00:29:52;101814.16;;;9.31;78.27
78745;BME280;68064;53.100;8.824;2023-03-20T00:30:53;101813.59;;;9.35;79.47
78745;BME280;68064;53.100;8.824;2023-03-20T00:31:54;101821.44;;;9.38;78.35
78745;BME280;68064;53.100;8.824;2023-03-20T00:32:56;101815.13;;;9.33;77.30
78745;BME280;68064;53.100;8.824;2023-03-20T00:34:00;101804.34;;;9.37;78.34
78745;BME280;68064;53.100;8.824;2023-03-20T00:35:19;101809.44;;;9.37;78.37
78745;BME280;68064;53.100;8.824;2023-03-20T00:36:20;101804.03;;;9.32;78.19
78745;BME280;68064;53.100;8.824;2023-03-20T00:37:21;101810.13;;;9.34;79.77
78745;BME280;68064;53.100;8.824;2023-03-20T00:38:23;101820.38;;;9.34;77.19
78745;BME280;68064;53.100;8.824;2023-03-20T00:39:25;101810.41;;;9.39;78.21
78745;BME280;68064;53.100;8.824;2023-03-20T00:40:29;101817.09;;;9.37;78.01
78745;BME280;68064;53.100;8.824;2023-03-20T00:41:32;101809.31;;;9.35;77.00
78745;BME280;68064;53.100;8.824;2023-03-20T00:42:37;101805.91;;;9.35;78.33
78745;BME280;68064;53.100;8.824;2023-03-20T00:43:38;101819.56;;;9.35;78.50
78745;BME280;68064;53.100;8.824;2023-03-20T00:44:45;101813.47;;;9.33;77.22
78745;BME280;68064;53.100;8.824;2023-03-20T00:45:48;101816.13;;;9.35;76.98
78745;BME280;68064;53.100;8.824;2023-03-20T00:46:51;101814.56;;;9.37;76.62
78745;BME280;68064;53.100;8.824;2023-03-20T00:47:53;101814.56;;;9.37;77.41
78745;BME280;68064;53.100;8.824;2023-03-20T00:48:54;101813.84;;;9.39;76.97
78745;BME280;68064;53.100;8.824;2023-03-20T00:49:55;101816.03;;;9.33;76.61
78745;BME280;68064;53.100;8.824;2023-03-20T00:50:56;101817.09;;;9.37;78.13
78745;BME280;68064;53.100;8.824;2023-03-20T00:51:57;101811.03;;;9.35;78.43
78745;BME280;68064;53.100;8.824;2023-03-20T00:52:58;101815.91;;;9.32;77.32
78745;BME280;68064;53.100;8.824;2023-03-20T00:53:59;101812.59;;;9.33;78.37
78745;BME280;68064;53.100;8.824;2023-03-20T00:55:02;101810.81;;;9.32;78.59
78745;BME280;68064;53.100;8.824;2023-03-20T00:56:04;101824.59;;;9.34;78.14
78745;BME280;68064;53.100;8.824;2023-03-20T00:57:07;101817.88;;;9.36;76.08
78745;BME280;68064;53.100;8.824;2023-03-20T00:58:11;101808.16;;;9.30;78.50
78745;BME280;68064;53.100;8.824;2023-03-20T00:59:13;101828.91;;;9.35;77.47
78745;BME280;68064;53.100;8.824;2023-03-20T01:00:23;101822.81;;;9.33;78.57
78745;BME280;68064;53.100;8.824;2023-03-20T01:01:25;101820.81;;;9.29;78.06
78745;BME280;68064;53.100;8.824;2023-03-20T01:02:27;101821.91;;;9.32;77.54
78745;BME280;68064;53.100;8.824;2023-03-20T01:03:29;101821.03;;;9.32;77.22
78745;BME280;68064;53.100;8.824;2023-03-20T01:04:33;101815.13;;;9.33;77.79
78745;BME280;68064;53.100;8.824;2023-03-20T01:05:35;101813.09;;;9.27;79.41
78745;BME280;68064;53.100;8.824;2023-03-20T01:06:36;101819.09;;;9.28;79.54
78745;BME280;68064;53.100;8.824;2023-03-20T01:07:37;101820.81;;;9.29;79.00
78745;BME280;68064;53.100;8.824;2023-03-20T01:08:38;101814.06;;;9.29;79.01
78745;BME280;68064;53.100;8.824;2023-03-20T01:09:39;101819.97;;;9.28;77.15
78745;BME280;68064;53.100;8.824;2023-03-20T01:10:42;101821.03;;;9.32;77.50
78745;BME280;68064;53.100;8.824;2023-03-20T01:11:44;101822.72;;;9.31;78.80
78745;BME280;68064;53.100;8.824;2023-03-20T01:12:45;101824.97;;;9.27;79.51
78745;BME280;68064;53.100;8.824;2023-03-20T01:13:47;101819.09;;;9.28;78.70
78745;BME280;68064;53.100;8.824;2023-03-20T01:14:51;101822.53;;;9.28;79.56
78745;BME280;68064;53.100;8.824;2023-03-20T01:15:54;101831.06;;;9.29;78.71
78745;BME280;68064;53.100;8.824;2023-03-20T01:16:56;101823.38;;;9.29;79.52
78745;BME280;68064;53.100;8.824;2023-03-20T01:17:57;101828.50;;;9.29;77.63
78745;BME280;68064;53.100;8.824;2023-03-20T01:18:58;101822.34;;;9.25;77.93
78745;BME280;68064;53.100;8.824;2023-03-20T01:19:59;101834.22;;;9.25;78.60
78745;BME280;68064;53.100;8.824;2023-03-20T01:21:00;101832.63;;;9.27;78.84
78745;BME280;68064;53.100;8.824;2023-03-20T01:22:01;101829.09;;;9.25;79.56
78745;BME280;68064;53.100;8.824;2023-03-20T01:23:02;101833.34;;;9.24;78.23
78745;BME280;68064;53.100;8.824;2023-03-20T01:24:04;101819.47;;;9.21;78.07
78745;BME280;68064;53.100;8.824;2023-03-20T01:25:06;101830.19;;;9.28;77.98
78745;BME280;68064;53.100;8.824;2023-03-20T01:26:19;101832.44;;;9.24;79.32
78745;BME280;68064;53.100;8.824;2023-03-20T01:27:20;101839.22;;;9.23;79.21
78745;BME280;68064;53.100;8.824;2023-03-20T01:28:22;101825.28;;;9.18;80.31
78745;BME280;68064;53.100;8.824;2023-03-20T01:29:25;101834.81;;;9.21;79.56
78745;BME280;68064;53.100;8.824;2023-03-20T01:30:28;101842.34;;;9.19;80.15
78745;BME280;68064;53.100;8.824;2023-03-20T01:31:32;101846.59;;;9.19;80.32
78745;BME280;68064;53.100;8.824;2023-03-20T01:32:33;101837.03;;;9.16;79.37
78745;BME280;68064;53.100;8.824;2023-03-20T01:33:34;101838.06;;;9.18;80.04
78745;BME280;68064;53.100;8.824;2023-03-20T01:34:35;101848.84;;;9.14;81.22
78745;BME280;68064;53.100;8.824;2023-03-20T01:35:36;101837.75;;;9.14;79.97
78745;BME280;68064;53.100;8.824;2023-03-20T01:36:37;101840.50;;;9.17;78.90
78745;BME280;68064;53.100;8.824;2023-03-20T01:37:38;101844.06;;;9.19;80.19
78745;BME280;68064;53.100;8.824;2023-03-20T01:38:40;101839.13;;;9.22;78.89
78745;BME280;68064;53.100;8.824;2023-03-20T01:39:41;101845.09;;;9.22;78.35
78745;BME280;68064;53.100;8.824;2023-03-20T01:40:47;101842.53;;;9.22;77.50
78745;BME280;68064;53.100;8.824;2023-03-20T01:41:52;101851.72;;;9.19;79.22
78745;BME280;68064;53.100;8.824;2023-03-20T01:42:54;101854.94;;;9.16;80.60
78745;BME280;68064;53.100;8.824;2023-03-20T01:43:55;101856.88;;;9.07;81.44
78745;BME280;68064;53.100;8.824;2023-03-20T01:44:56;101847.38;;;9.18;78.81
78745;BME280;68064;53.100;8.824;2023-03-20T01:46:00;101846.19;;;8.99;80.02
78745;BME280;68064;53.100;8.824;2023-03-20T01:47:13;101852.09;;;8.98;80.10
78745;BME280;68064;53.100;8.824;2023-03-20T01:48:16;101851.38;;;9.01;80.47
78745;BME280;68064;53.100;8.824;2023-03-20T01:50:56;101853.06;;;9.00;79.30
78745;BME280;68064;53.100;8.824;2023-03-20T01:51:57;101853.84;;;8.99;78.50
78745;BME280;68064;53.100;8.824;2023-03-20T01:53:07;101854.25;;;9.06;78.56
78745;BME280;68064;53.100;8.824;2023-03-20T01:54:13;101855.91;;;9.05;78.24
78745;BME280;68064;53.100;8.824;2023-03-20T01:55:15;101852.34;;;9.03;78.62
78745;BME280;68064;53.100;8.824;2023-03-20T01:56:17;101850.22;;;9.09;78.03
78745;BME280;68064;53.100;8.824;2023-03-20T01:57:23;101850.41;;;8.99;79.11
78745;BME280;68064;53.100;8.824;2023-03-20T01:58:30;101853.34;;;8.92;79.50
78745;BME280;68064;53.100;8.824;2023-03-20T01:59:33;101855.22;;;8.94;78.69
78745;BME280;68064;53.100;8.824;2023-03-20T02:00:36;101845.56;;;8.90;78.43
78745;BME280;68064;53.100;8.824;2023-03-20T02:01:37;101853.22;;;8.90;79.50
78745;BME280;68064;53.100;8.824;2023-03-20T02:02:39;101853.84;;;8.99;78.17
78745;BME280;68064;53.100;8.824;2023-03-20T02:03:44;101846.28;;;9.01;78.52
78745;BME280;68064;53.100;8.824;2023-03-20T02:04:48;101849.13;;;8.92;78.61
78745;BME280;68064;53.100;8.824;2023-03-20T02:05:52;101839.59;;;8.90;78.91
78745;BME280;68064;53.100;8.824;2023-03-20T02:06:55;101842.34;;;8.93;78.07
78745;BME280;68064;53.100;8.824;2023-03-20T02:08:08;101846.47;;;9.04;77.85
78745;BME280;68064;53.100;8.824;2023-03-20T02:09:12;101845.31;;;8.99;77.99
78745;BME280;68064;53.100;8.824;2023-03-20T02:10:14;101853.66;;;8.96;78.88
78745;BME280;68064;53.100;8.824;2023-03-20T02:11:17;101851.56;;;8.91;78.60
78745;BME280;68064;53.100;8.824;2023-03-20T02:12:20;101860.44;;;8.96;78.74
78745;BME280;68064;53.100;8.824;2023-03-20T02:13:23;101844.91;;;8.93;78.13
78745;BME280;68064;53.100;8.824;2023-03-20T02:14:26;101852.75;;;8.83;78.99
78745;BME280;68064;53.100;8.824;2023-03-20T02:15:29;101847.47;;;8.93;77.80
78745;BME280;68064;53.100;8.824;2023-03-20T02:16:30;101847.56;;;8.94;77.46
78745;BME280;68064;53.100;8.824;2023-03-20T02:17:31;101841.94;;;9.00;76.87
78745;BME280;68064;53.100;8.824;2023-03-20T02:18:33;101848.31;;;8.93;78.38
78745;BME280;68064;53.100;8.824;2023-03-20T02:19:43;101845.50;;;9.02;76.19
78745;BME280;68064;53.100;8.824;2023-03-20T02:22:29;101838.19;;;8.82;78.60
78745;BME280;68064;53.100;8.824;2023-03-20T02:27:12;101851.34;;;8.75;79.42
78745;BME280;68064;53.100;8.824;2023-03-20T02:30:34;101853.72;;;8.85;77.74
78745;BME280;68064;53.100;8.824;2023-03-20T02:34:15;101847.66;;;8.96;76.93
78745;BME280;68064;53.100;8.824;2023-03-20T02:35:49;101848.63;;;8.98;76.86
78745;BME280;68064;53.100;8.824;2023-03-20T02:37:16;101836.38;;;8.92;77.63
78745;BME280;68064;53.100;8.824;2023-03-20T02:38:33;101843.22;;;8.93;77.24
78745;BME280;68064;53.100;8.824;2023-03-20T02:39:46;101838.78;;;8.78;78.61
78745;BME280;68064;53.100;8.824;2023-03-20T02:40:58;101836.34;;;8.79;78.18
78745;BME280;68064;53.100;8.824;2023-03-20T02:42:08;101841.84;;;8.85;78.27
78745;BME280;68064;53.100;8.824;2023-03-20T02:43:17;101850.97;;;8.82;78.59
78745;BME280;68064;53.100;8.824;2023-03-20T02:44:22;101842.38;;;8.68;78.64
78745;BME280;68064;53.100;8.824;2023-03-20T02:45:33;101842.88;;;8.63;78.54
78745;BME280;68064;53.100;8.824;2023-03-20T02:46:43;101835.78;;;8.59;78.79
78745;BME280;68064;53.100;8.824;2023-03-20T02:48:00;101839.16;;;8.58;79.28
78745;BME280;68064;53.100;8.824;2023-03-20T02:49:10;101829.44;;;8.65;78.92
78745;BME280;68064;53.100;8.824;2023-03-20T02:50:22;101832.66;;;8.63;78.42
78745;BME280;68064;53.100;8.824;2023-03-20T02:51:32;101837.69;;;8.74;77.78
78745;BME280;68064;53.100;8.824;2023-03-20T02:52:41;101825.16;;;8.77;77.09
78745;BME280;68064;53.100;8.824;2023-03-20T02:53:50;101824.53;;;8.68;78.51
78745;BME280;68064;53.100;8.824;2023-03-20T02:54:57;101828.09;;;8.70;78.12
78745;BME280;68064;53.100;8.824;2023-03-20T02:56:11;101824.91;;;8.74;77.54
78745;BME280;68064;53.100;8.824;2023-03-20T02:57:19;101823.94;;;8.72;77.70
78745;BME280;68064;53.100;8.824;2023-03-20T02:58:25;101816.78;;;8.67;78.10
78745;BME280;68064;53.100;8.824;2023-03-20T02:59:31;101809.91;;;8.66;77.19
78745;BME280;68064;53.100;8.824;2023-03-20T03:00:37;101818.25;;;8.63;77.20
78745;BME280;68064;53.100;8.824;2023-03-20T03:01:41;101822.66;;;8.66;76.70
78745;BME280;68064;53.100;8.824;2023-03-20T03:02:47;101823.97;;;8.85;75.38
78745;BME280;68064;53.100;8.824;2023-03-20T03:03:55;101810.41;;;8.73;76.14
78745;BME280;68064;53.100;8.824;2023-03-20T03:04:59;101816.28;;;8.72;76.86
78745;BME280;68064;53.100;8.824;2023-03-20T03:06:06;101811.69;;;8.67;77.21
78745;BME280;68064;53.100;8.824;2023-03-20T03:07:09;101810.97;;;8.69;77.30
78745;BME280;68064;53.100;8.824;2023-03-20T03:08:16;101809.22;;;8.68;76.72
78745;BME280;68064;53.100;8.824;2023-03-20T03:09:22;101806.19;;;8.74;75.62
78745;BME280;68064;53.100;8.824;2023-03-20T03:10:28;101815.72;;;8.76;75.76
78745;BME280;68064;53.100;8.824;2023-03-20T03:11:33;101804.91;;;8.67;76.59
78745;BME280;68064;53.100;8.824;2023-03-20T03:12:38;101805.00;;;8.69;76.46
78745;BME280;68064;53.100;8.824;2023-03-20T03:13:44;101805.69;;;8.66;76.43
78745;BME280;68064;53.100;8.824;2023-03-20T03:14:48;101801.47;;;8.67;76.84
78745;BME280;68064;53.100;8.824;2023-03-20T03:15:53;101798.03;;;8.66;76.62
78745;BME280;68064;53.100;8.824;2023-03-20T03:16:59;101801.16;;;8.62;76.88
78745;BME280;68064;53.100;8.824;2023-03-20T03:18:04;101804.22;;;8.70;76.69
78745;BME280;68064;53.100;8.824;2023-03-20T03:19:08;101800.97;;;8.72;76.39
78745;BME280;68064;53.100;8.824;2023-03-20T03:20:19;101803.72;;;8.75;75.96
78745;BME280;68064;53.100;8.824;2023-03-20T03:21:22;101798.63;;;8.75;75.95
78745;BME280;68064;53.100;8.824;2023-03-20T03:22:24;101799.50;;;8.76;75.52
78745;BME280;68064;53.100;8.824;2023-03-20T03:23:31;101785.97;;;8.77;75.43
78745;BME280;68064;53.100;8.824;2023-03-20T03:24:36;101795.50;;;8.79;75.76
78745;BME280;68064;53.100;8.824;2023-03-20T03:25:39;101793.63;;;8.77;75.12
78745;BME280;68064;53.100;8.824;2023-03-20T03:26:41;101783.31;;;8.75;75.77
78745;BME280;68064;53.100;8.824;2023-03-20T03:27:44;101789.59;;;8.67;76.19
78745;BME280;68064;53.100;8.824;2023-03-20T03:28:49;101790.56;;;8.69;76.45
78745;BME280;68064;53.100;8.824;2023-03-20T03:29:53;101788.88;;;8.57;76.77
78745;BME280;68064;53.100;8.824;2023-03-20T03:30:56;101785.44;;;8.56;76.78
78745;BME280;68064;53.100;8.824;2023-03-20T03:32:00;101784.19;;;8.63;76.52
78745;BME280;68064;53.100;8.824;2023-03-20T03:33:11;101787.94;;;8.68;76.02
78745;BME280;68064;53.100;8.824;2023-03-20T03:34:15;101778.50;;;8.67;76.01
78745;BME280;68064;53.100;8.824;2023-03-20T03:35:19;101780.94;;;8.65;76.12
78745;BME280;68064;53.100;8.824;2023-03-20T03:36:28;101782.72;;;8.66;76.01
78745;BME280;68064;53.100;8.824;2023-03-20T03:37:40;101784.88;;;8.60;76.96
78745;BME280;68064;53.100;8.824;2023-03-20T03:38:51;101776.81;;;8.54;76.86
78745;BME280;68064;53.100;8.824;2023-03-20T03:40:01;101776.59;;;8.51;77.56
78745;BME280;68064;53.100;8.824;2023-03-20T03:41:16;101782.41;;;8.48;77.55
78745;BME280;68064;53.100;8.824;2023-03-20T03:42:24;101771.88;;;8.44;77.30
78745;BME280;68064;53.100;8.824;2023-03-20T03:43:30;101767.09;;;8.48;77.09
78745;BME280;68064;53.100;8.824;2023-03-20T03:44:36;101768.56;;;8.45;77.48
78745;BME280;68064;53.100;8.824;2023-03-20T03:45:47;101777.75;;;8.43;78.07
78745;BME280;68064;53.100;8.824;2023-03-20T03:46:52;101762.25;;;8.40;77.91
78745;BME280;68064;53.100;8.824;2023-03-20T03:47:56;101771.09;;;8.45;77.91
78745;BME280;68064;53.100;8.824;2023-03-20T03:49:01;101769.53;;;8.47;77.50
78745;BME280;68064;53.100;8.824;2023-03-20T03:50:08;101769.63;;;8.48;77.63
78745;BME280;68064;53.100;8.824;2023-03-20T03:51:13;101766.19;;;8.48;78.10
78745;BME280;68064;53.100;8.824;2023-03-20T03:52:19;101762.75;;;8.47;77.90
78745;BME280;68064;53.100;8.824;2023-03-20T03:53:26;101765.59;;;8.39;78.25
78745;BME280;68064;53.100;8.824;2023-03-20T03:54:35;101771.09;;;8.45;77.84
78745;BME280;68064;53.100;8.824;2023-03-20T03:55:40;101765.31;;;8.47;77.80
78745;BME280;68064;53.100;8.824;2023-03-20T03:56:45;101772.66;;;8.43;78.42
78745;BME280;68064;53.100;8.824;2023-03-20T03:57:51;101763.34;;;8.43;77.32
78745;BME280;68064;53.100;8.824;2023-03-20T03:58:57;101770.28;;;8.46;77.77
78745;BME280;68064;53.100;8.824;2023-03-20T04:00:01;101770.50;;;8.49;77.82
78745;BME280;68064;53.100;8.824;2023-03-20T04:01:05;101761.88;;;8.47;77.08
78745;BME280;68064;53.100;8.824;2023-03-20T04:02:08;101776.41;;;8.48;77.84
78745;BME280;68064;53.100;8.824;2023-03-20T04:03:11;101771.09;;;8.45;77.53
78745;BME280;68064;53.100;8.824;2023-03-20T04:04:13;101776.09;;;8.43;78.08
78745;BME280;68064;53.100;8.824;2023-03-20T04:05:17;101772.06;;;8.47;77.23
78745;BME280;68064;53.100;8.824;2023-03-20T04:06:19;101768.06;;;8.50;76.52
78745;BME280;68064;53.100;8.824;2023-03-20T04:07:22;101765.81;;;8.42;78.37
78745;BME280;68064;53.100;8.824;2023-03-20T04:08:25;101776.28;;;8.46;77.89
78745;BME280;68064;53.100;8.824;2023-03-20T04:09:26;101774.63;;;8.47;77.56
78745;BME280;68064;53.100;8.824;2023-03-20T04:10:29;101780.34;;;8.56;75.94
78745;BME280;68064;53.100;8.824;2023-03-20T04:11:30;101775.22;;;8.56;76.64
78745;BME280;68064;53.100;8.824;2023-03-20T04:12:34;101776.59;;;8.51;76.85
78745;BME280;68064;53.100;8.824;2023-03-20T04:13:35;101778.06;;;8.47;77.75
78745;BME280;68064;53.100;8.824;2023-03-20T04:14:36;101779.03;;;8.49;77.18
78745;BME280;68064;53.100;8.824;2023-03-20T04:15:37;101773.84;;;8.48;77.75
78745;BME280;68064;53.100;8.824;2023-03-20T04:16:38;101775.00;;;8.40;78.79
78745;BME280;68064;53.100;8.824;2023-03-20T04:17:39;101779.53;;;8.44;78.46
78745;BME280;68064;53.100;8.824;2023-03-20T04:18:40;101773.75;;;8.46;77.97
78745;BME280;68064;53.100;8.824;2023-03-20T04:19:41;101778.44;;;8.40;78.57
78745;BME280;68064;53.100;8.824;2023-03-20T04:20:43;101776.78;;;8.41;78.35
78745;BME280;68064;53.100;8.824;2023-03-20T04:21:44;101775.88;;;8.40;79.26
78745;BME280;68064;53.100;8.824;2023-03-20T04:22:45;101781.41;;;8.46;77.51
78745;BME280;68064;53.100;8.824;2023-03-20T04:23:46;101784.22;;;8.38;78.78
78745;BME280;68064;53.100;8.824;2023-03-20T04:24:47;101777.34;;;8.37;79.28
78745;BME280;68064;53.100;8.824;2023-03-20T04:25:50;101782.97;;;8.44;77.57
78745;BME280;68064;53.100;8.824;2023-03-20T04:26:51;101779.31;;;8.41;78.21
78745;BME280;68064;53.100;8.824;2023-03-20T04:27:52;101774.91;;;8.38;78.28
78745;BME280;68064;53.100;8.824;2023-03-20T04:28:53;101767.53;;;8.43;77.45
78745;BME280;68064;53.100;8.824;2023-03-20T04:29:54;101772.94;;;8.34;79.64
78745;BME280;68064;53.100;8.824;2023-03-20T04:30:57;101771.47;;;8.38;78.21
78745;BME280;68064;53.100;8.824;2023-03-20T04:31:58;101772.03;;;8.34;79.33
78745;BME280;68064;53.100;8.824;2023-03-20T04:32:59;101769.41;;;8.32;79.39
78745;BME280;68064;53.100;8.824;2023-03-20T04:34:00;101765.06;;;8.31;79.54
78745;BME280;68064;53.100;8.824;2023-03-20T04:35:01;101772.16;;;8.35;77.70
78745;BME280;68064;53.100;8.824;2023-03-20T04:36:03;101771.84;;;8.31;79.96
78745;BME280;68064;53.100;8.824;2023-03-20T04:37:04;101772.25;;;8.37;78.25
78745;BME280;68064;53.100;8.824;2023-03-20T04:38:05;101766.66;;;8.29;79.95
78745;BME280;68064;53.100;8.824;2023-03-20T04:39:06;101769.28;;;8.31;79.24
78745;BME280;68064;53.100;8.824;2023-03-20T04:40:08;101760.28;;;8.36;77.97
78745;BME280;68064;53.100;8.824;2023-03-20T04:41:11;101764.50;;;8.35;78.62
78745;BME280;68064;53.100;8.824;2023-03-20T04:42:12;101758.59;;;8.36;78.53
78745;BME280;68064;53.100;8.824;2023-03-20T04:43:14;101765.00;;;8.43;76.94
78745;BME280;68064;53.100;8.824;2023-03-20T04:44:15;101759.13;;;8.44;77.63
78745;BME280;68064;53.100;8.824;2023-03-20T04:45:18;101761.78;;;8.45;77.05
78745;BME280;68064;53.100;8.824;2023-03-20T04:46:19;101764.63;;;8.50;76.38
78745;BME280;68064;53.100;8.824;2023-03-20T04:47:20;101763.44;;;8.45;78.48
78745;BME280;68064;53.100;8.824;2023-03-20T04:48:21;101757.94;;;8.52;75.60
78745;BME280;68064;53.100;8.824;2023-03-20T04:49:22;101755.38;;;8.52;75.92
78745;BME280;68064;53.100;8.824;2023-03-20T04:50:26;101758.53;;;8.48;76.67
78745;BME280;68064;53.100;8.824;2023-03-20T04:51:27;101756.56;;;8.44;77.68
78745;BME280;68064;53.100;8.824;2023-03-20T04:52:28;101756.19;;;8.51;76.91
78745;BME280;68064;53.100;8.824;2023-03-20T04:53:29;101760.91;;;8.45;78.37
78745;BME280;68064;53.100;8.824;2023-03-20T04:54:30;101752.03;;;8.40;79.23
78745;BME280;68064;53.100;8.824;2023-03-20T04:55:31;101760.69;;;8.42;77.28
78745;BME280;68064;53.100;8.824;2023-03-20T04:56:34;101757.34;;;8.43;78.00
78745;BME280;68064;53.100;8.824;2023-03-20T04:57:35;101761.66;;;8.44;77.41
78745;BME280;68064;53.100;8.824;2023-03-20T04:58:36;101764.03;;;8.41;78.62
78745;BME280;68064;53.100;8.824;2023-03-20T04:59:37;101754.31;;;8.35;78.35
78745;BME280;68064;53.100;8.824;2023-03-20T05:00:38;101762.44;;;8.43;76.77
78745;BME280;68064;53.100;8.824;2023-03-20T05:01:39;101765.69;;;8.40;77.86
78745;BME280;68064;53.100;8.824;2023-03-20T05:02:41;101772.06;;;8.47;77.09
78745;BME280;68064;53.100;8.824;2023-03-20T05:03:42;101766.88;;;8.45;76.99
78745;BME280;68064;53.100;8.824;2023-03-20T05:04:43;101767.94;;;8.49;76.67
78745;BME280;68064;53.100;8.824;2023-03-20T05:05:44;101767.34;;;8.40;79.34
78745;BME280;68064;53.100;8.824;2023-03-20T05:06:45;101763.69;;;8.36;78.71
78745;BME280;68064;53.100;8.824;2023-03-20T05:07:46;101772.84;;;8.46;76.63
78745;BME280;68064;53.100;8.824;2023-03-20T05:08:47;101768.63;;;8.46;75.95
78745;BME280;68064;53.100;8.824;2023-03-20T05:09:48;101771.00;;;8.43;77.51
78745;BME280;68064;53.100;8.824;2023-03-20T05:10:49;101767.53;;;8.43;76.94
78745;BME280;68064;53.100;8.824;2023-03-20T05:11:52;101770.63;;;8.50;74.96
78745;BME280;68064;53.100;8.824;2023-03-20T05:12:53;101768.75;;;8.48;78.09
78745;BME280;68064;53.100;8.824;2023-03-20T05:13:56;101774.44;;;8.44;76.67
78745;BME280;68064;53.100;8.824;2023-03-20T05:14:57;101774.50;;;8.32;80.21
78745;BME280;68064;53.100;8.824;2023-03-20T05:15:58;101777.91;;;8.33;78.24
78745;BME280;68064;53.100;8.824;2023-03-20T05:16:59;101767.97;;;8.24;80.22
78745;BME280;68064;53.100;8.824;2023-03-20T05:18:00;101779.41;;;8.29;78.94
78745;BME280;68064;53.100;8.824;2023-03-20T05:19:01;101767.44;;;8.28;77.76
78745;BME280;68064;53.100;8.824;2023-03-20T05:20:03;101778.34;;;8.39;78.87
78745;BME280;68064;53.100;8.824;2023-03-20T05:21:05;101779.81;;;8.35;77.99
78745;BME280;68064;53.100;8.824;2023-03-20T05:22:09;101783.75;;;8.43;75.80
78745;BME280;68064;53.100;8.824;2023-03-20T05:23:11;101778.06;;;8.47;78.52
78745;BME280;68064;53.100;8.824;2023-03-20T05:24:12;101786.47;;;8.33;79.78
78745;BME280;68064;53.100;8.824;2023-03-20T05:25:13;101779.81;;;8.35;78.07
78745;BME280;68064;53.100;8.824;2023-03-20T05:26:14;101784.31;;;8.39;79.27
78745;BME280;68064;53.100;8.824;2023-03-20T05:27:16;101780.59;;;8.34;78.67
78745;BME280;68064;53.100;8.824;2023-03-20T05:28:18;101778.75;;;8.45;76.08
78745;BME280;68064;53.100;8.824;2023-03-20T05:29:19;101772.66;;;8.43;76.27
78745;BME280;68064;53.100;8.824;2023-03-20T05:30:20;101781.88;;;8.41;76.75
78745;BME280;68064;53.100;8.824;2023-03-20T05:31:21;101776.25;;;8.33;78.14
78745;BME280;68064;53.100;8.824;2023-03-20T05:32:22;101776.25;;;8.33;79.76
78745;BME280;68064;53.100;8.824;2023-03-20T05:33:23;101771.16;;;8.33;77.01
78745;BME280;68064;53.100;8.824;2023-03-20T05:34:24;101777.34;;;8.37;78.60
78745;BME280;68064;53.100;8.824;2023-03-20T05:35:25;101785.19;;;8.40;78.03
78745;BME280;68064;53.100;8.824;2023-03-20T05:36:26;101780.00;;;8.38;77.61
78745;BME280;68064;53.100;8.824;2023-03-20T05:37:31;101770.69;;;8.39;77.23
78745;BME280;68064;53.100;8.824;2023-03-20T05:38:32;101783.53;;;8.40;77.79
78745;BME280;68064;53.100;8.824;2023-03-20T05:39:33;101783.81;;;8.32;79.18
78745;BME280;68064;53.100;8.824;2023-03-20T05:40:34;101785.56;;;8.33;79.15
78745;BME280;68064;53.100;8.824;2023-03-20T05:41:35;101780.09;;;8.40;76.80
78745;BME280;68064;53.100;8.824;2023-03-20T05:42:38;101789.41;;;8.39;77.40
78745;BME280;68064;53.100;8.824;2023-03-20T05:43:39;101784.50;;;8.42;76.32
78745;BME280;68064;53.100;8.824;2023-03-20T05:44:40;101784.22;;;8.38;77.14
78745;BME280;68064;53.100;8.824;2023-03-20T05:45:41;101794.53;;;8.39;76.89
78745;BME280;68064;53.100;8.824;2023-03-20T05:48:13;101767.75;;;8.21;79.02
78745;BME280;68064;53.100;8.824;2023-03-20T05:49:17;101777.38;;;8.25;80.04
78745;BME280;68064;53.100;8.824;2023-03-20T05:50:19;101769.00;;;8.15;79.64